Time;durP1;ratioP1;P1;durP2;ratioP2;P2;SDS_P1;SDS_P2;PMS_P1;PMS_P2;Temp;Humidity;BMP_temperature;BMP_pressure;BME280_temperature;BME280_humidity;BME280_pressure;Samples;Min_cycle;Max_cycle;Signal;HPM_P1;HPM_P2
2021/09/22 00:01:33;;;;;;;14.18;4.30;;;15.70;69.20;;;;;;5045621;28;20465;-67
2021/09/22 00:04:00;;;;;;;10.73;3.88;;;15.70;69.00;;;;;;5048670;28;20473;-67
2021/09/22 00:06:26;;;;;;;14.95;3.90;;;15.80;68.80;;;;;;5047166;28;20496;-68
2021/09/22 00:08:53;;;;;;;8.40;3.53;;;15.80;68.50;;;;;;5041945;28;20021;-68
2021/09/22 00:11:19;;;;;;;9.35;3.60;;;15.70;68.30;;;;;;5048073;28;20017;-67
2021/09/22 00:13:46;;;;;;;5.97;2.78;;;15.70;68.00;;;;;;5041507;28;20040;-71
2021/09/22 00:16:13;;;;;;;9.70;3.28;;;15.70;67.80;;;;;;5047114;28;20496;-68
2021/09/22 00:18:39;;;;;;;7.78;3.38;;;15.70;67.90;;;;;;5042714;28;20054;-67
2021/09/22 00:21:06;;;;;;;7.55;3.45;;;15.60;67.80;;;;;;5040268;28;20027;-67
2021/09/22 00:23:33;;;;;;;11.55;2.80;;;15.60;67.70;;;;;;5042562;28;20040;-68
2021/09/22 00:25:59;;;;;;;9.50;3.15;;;15.60;67.50;;;;;;5044632;28;20427;-73
2021/09/22 00:28:26;;;;;;;7.43;2.63;;;15.60;67.70;;;;;;5048885;28;20074;-68
2021/09/22 00:30:54;;;;;;;5.35;2.22;;;15.60;67.70;;;;;;5043506;28;20024;-67
2021/09/22 00:33:20;;;;;;;7.95;2.88;;;15.50;67.40;;;;;;5043570;28;20040;-72
2021/09/22 00:35:47;;;;;;;8.10;3.28;;;15.50;67.30;;;;;;5043499;28;20536;-67
2021/09/22 00:38:13;;;;;;;8.30;2.28;;;15.50;67.40;;;;;;5042494;28;20035;-72
2021/09/22 00:40:40;;;;;;;11.98;4.45;;;15.50;67.30;;;;;;5044210;28;20116;-68
2021/09/22 00:43:07;;;;;;;13.70;3.28;;;15.50;67.30;;;;;;5044421;28;20021;-68
2021/09/22 00:45:33;;;;;;;11.45;3.22;;;15.50;67.50;;;;;;5043619;28;20009;-71
2021/09/22 00:48:00;;;;;;;8.30;2.50;;;15.50;67.80;;;;;;5042353;28;20026;-69
2021/09/22 00:50:26;;;;;;;8.30;2.75;;;15.40;68.30;;;;;;5047504;28;20055;-67
2021/09/22 00:52:53;;;;;;;15.90;3.58;;;15.40;68.50;;;;;;5050399;28;20025;-67
2021/09/22 00:55:20;;;;;;;10.82;2.58;;;15.40;68.70;;;;;;5048920;28;20424;-67
2021/09/22 00:57:52;;;;;;;10.50;3.45;;;15.40;69.10;;;;;;5041881;28;20122;-67
2021/09/22 01:00:21;;;;;;;11.30;3.95;;;15.40;69.60;;;;;;5046475;28;20087;-72
2021/09/22 01:02:48;;;;;;;10.73;2.92;;;15.30;69.80;;;;;;5042317;28;20025;-67
2021/09/22 01:05:24;;;;;;;7.78;2.55;;;15.30;70.10;;;;;;5044531;28;20017;-72
2021/09/22 01:07:51;;;;;;;9.80;4.30;;;15.30;70.50;;;;;;5041763;28;20534;-68
2021/09/22 01:10:20;;;;;;;9.32;3.97;;;15.30;71.20;;;;;;5044744;28;20044;-67
2021/09/22 01:12:47;;;;;;;11.20;3.03;;;15.30;71.60;;;;;;5046690;28;20016;-68
2021/09/22 01:15:36;;;;;;;9.90;2.65;;;15.30;72.00;;;;;;5043795;28;20025;-67
2021/09/22 01:18:03;;;;;;;12.52;3.05;;;15.30;72.20;;;;;;5045545;28;20037;-73
2021/09/22 01:20:32;;;;;;;7.60;2.65;;;15.30;72.40;;;;;;5046703;28;20054;-67
2021/09/22 01:23:01;;;;;;;13.40;3.50;;;15.30;72.20;;;;;;5051875;28;20026;-67
2021/09/22 01:25:27;;;;;;;12.95;4.32;;;15.30;72.20;;;;;;5050521;28;20017;-67
2021/09/22 01:27:58;;;;;;;14.13;3.53;;;15.30;72.10;;;;;;5049448;28;20017;-68
2021/09/22 01:30:24;;;;;;;11.25;4.63;;;15.30;71.90;;;;;;5052716;28;20063;-72
2021/09/22 01:32:57;;;;;;;6.97;3.50;;;15.30;71.80;;;;;;5052186;28;20467;-69
2021/09/22 01:35:24;;;;;;;15.40;5.75;;;15.20;71.60;;;;;;5052451;28;20094;-67
2021/09/22 01:37:51;;;;;;;14.45;7.18;;;15.20;71.50;;;;;;5047480;28;20114;-67
2021/09/22 01:40:19;;;;;;;21.30;8.93;;;15.20;71.00;;;;;;5050681;28;20021;-72
2021/09/22 01:42:46;;;;;;;18.02;9.02;;;15.10;70.80;;;;;;5048586;28;20044;-66
2021/09/22 01:45:14;;;;;;;17.15;8.40;;;15.10;70.70;;;;;;5056390;28;20028;-66
2021/09/22 01:47:41;;;;;;;11.77;7.45;;;15.10;70.70;;;;;;5049327;28;20055;-67
2021/09/22 01:50:14;;;;;;;15.07;6.53;;;15.00;70.50;;;;;;5050032;28;20088;-69
2021/09/22 01:52:42;;;;;;;13.00;6.22;;;15.00;70.20;;;;;;5050928;28;20048;-67
2021/09/22 01:55:10;;;;;;;15.63;5.53;;;15.00;70.00;;;;;;5052064;28;20033;-67
2021/09/22 01:57:36;;;;;;;9.50;5.05;;;15.00;70.20;;;;;;5052222;28;20112;-72
2021/09/22 02:00:06;;;;;;;17.52;5.60;;;15.00;70.30;;;;;;5050844;28;20049;-71
2021/09/22 02:02:33;;;;;;;12.50;5.32;;;15.10;70.40;;;;;;5051498;28;20024;-73
2021/09/22 02:05:00;;;;;;;10.82;3.35;;;15.00;70.30;;;;;;5050127;28;20025;-67
2021/09/22 02:07:27;;;;;;;8.30;2.50;;;15.10;70.60;;;;;;5051996;28;20468;-72
2021/09/22 02:09:54;;;;;;;9.07;2.42;;;15.00;70.70;;;;;;5051617;28;20025;-73
2021/09/22 02:12:20;;;;;;;14.43;3.58;;;15.00;71.00;;;;;;5052289;28;20032;-68
2021/09/22 02:14:47;;;;;;;4.18;1.98;;;15.00;70.90;;;;;;5047146;28;20033;-71
2021/09/22 02:17:13;;;;;;;7.28;2.17;;;15.10;70.80;;;;;;5044926;28;20024;-68
2021/09/22 02:19:40;;;;;;;8.88;3.38;;;15.10;70.80;;;;;;5051713;28;20036;-69
2021/09/22 02:22:06;;;;;;;4.97;1.85;;;15.10;70.70;;;;;;5052368;28;20021;-73
2021/09/22 02:24:33;;;;;;;7.82;2.63;;;15.10;70.80;;;;;;5051201;28;20527;-72
2021/09/22 02:26:59;;;;;;;18.13;11.07;;;15.10;71.00;;;;;;5051051;28;20052;-66
2021/09/22 02:29:26;;;;;;;36.80;25.48;;;15.10;71.20;;;;;;5052802;28;20039;-68
2021/09/22 02:31:52;;;;;;;10.20;6.43;;;15.10;71.30;;;;;;5049229;28;20068;-70
2021/09/22 02:34:19;;;;;;;13.25;3.08;;;15.10;71.30;;;;;;5045245;28;20021;-70
2021/09/22 02:36:46;;;;;;;12.45;3.53;;;15.10;71.30;;;;;;5045534;28;20045;-72
2021/09/22 02:39:12;;;;;;;8.90;2.97;;;15.10;71.40;;;;;;5043852;28;20426;-67
2021/09/22 02:41:39;;;;;;;12.10;2.80;;;15.10;71.40;;;;;;5048657;28;20021;-70
2021/09/22 02:44:05;;;;;;;11.73;2.70;;;15.10;71.30;;;;;;5046138;28;20029;-67
2021/09/22 02:46:32;;;;;;;11.13;3.10;;;15.10;71.50;;;;;;5047386;28;20050;-67
2021/09/22 02:48:58;;;;;;;13.40;3.42;;;15.10;71.80;;;;;;5049367;28;20031;-70
2021/09/22 02:51:25;;;;;;;9.63;3.30;;;15.00;71.90;;;;;;5041868;28;20063;-71
2021/09/22 02:53:51;;;;;;;12.13;3.25;;;15.00;72.00;;;;;;5047680;28;20467;-67
2021/09/22 02:56:18;;;;;;;10.88;3.22;;;15.00;72.20;;;;;;5048755;28;20025;-72
2021/09/22 02:58:45;;;;;;;10.48;3.20;;;14.90;72.20;;;;;;5050090;28;20018;-71
2021/09/22 03:01:11;;;;;;;11.88;3.85;;;15.00;72.20;;;;;;5048099;28;20051;-68
2021/09/22 03:03:38;;;;;;;7.53;2.60;;;14.90;72.10;;;;;;5051112;28;20088;-69
2021/09/22 03:06:04;;;;;;;8.00;3.20;;;14.90;72.20;;;;;;5052445;28;20009;-69
2021/09/22 03:08:31;;;;;;;9.95;3.13;;;14.90;72.20;;;;;;5044231;28;20591;-68
2021/09/22 03:10:58;;;;;;;6.43;2.55;;;14.90;72.20;;;;;;5046137;28;20087;-71
2021/09/22 03:13:24;;;;;;;8.90;3.15;;;14.90;72.10;;;;;;5051388;28;20025;-68
2021/09/22 03:15:51;;;;;;;13.35;2.90;;;14.90;72.00;;;;;;5046209;28;20056;-69
2021/09/22 03:18:18;;;;;;;40.13;24.50;;;14.90;71.90;;;;;;5043500;28;20010;-69
2021/09/22 03:20:45;;;;;;;24.90;12.93;;;14.90;72.00;;;;;;5046054;28;20017;-68
2021/09/22 03:23:12;;;;;;;12.65;3.88;;;14.80;71.80;;;;;;5049699;28;20063;-72
2021/09/22 03:25:39;;;;;;;12.77;3.88;;;14.80;71.60;;;;;;5035726;28;20653;-67
2021/09/22 03:28:05;;;;;;;11.20;3.47;;;14.70;71.60;;;;;;5044645;28;20502;-71
2021/09/22 03:30:32;;;;;;;10.63;4.20;;;14.80;71.50;;;;;;5044306;28;20021;-70
2021/09/22 03:32:58;;;;;;;10.98;3.55;;;14.70;71.30;;;;;;5049723;28;20091;-68
2021/09/22 03:35:25;;;;;;;11.32;4.32;;;14.70;71.20;;;;;;5044429;28;20033;-67
2021/09/22 03:37:51;;;;;;;13.15;3.78;;;14.70;71.00;;;;;;5045242;28;20032;-73
2021/09/22 03:40:18;;;;;;;8.00;3.75;;;14.60;70.90;;;;;;5047237;28;20024;-74
2021/09/22 03:42:44;;;;;;;9.05;3.50;;;14.60;70.90;;;;;;5044487;28;20078;-72
2021/09/22 03:45:11;;;;;;;9.65;3.95;;;14.60;70.60;;;;;;5047507;28;20025;-67
2021/09/22 03:47:38;;;;;;;9.02;3.42;;;14.60;70.40;;;;;;5047652;28;20033;-72
2021/09/22 03:50:06;;;;;;;10.00;3.17;;;14.60;70.40;;;;;;5045821;28;20025;-73
2021/09/22 03:52:33;;;;;;;6.38;2.78;;;14.60;70.20;;;;;;5044786;28;20455;-70
2021/09/22 03:55:00;;;;;;;7.97;3.35;;;14.60;70.10;;;;;;5047707;28;20068;-67
2021/09/22 03:57:26;;;;;;;10.27;4.25;;;14.50;69.90;;;;;;5046540;28;20067;-72
2021/09/22 03:59:53;;;;;;;12.77;5.10;;;14.60;70.00;;;;;;5044723;28;20823;-72
2021/09/22 04:02:20;;;;;;;17.83;5.05;;;14.50;69.90;;;;;;5044786;28;20028;-70
2021/09/22 04:04:47;;;;;;;11.43;4.32;;;14.50;70.00;;;;;;5045332;28;20029;-68
2021/09/22 04:07:14;;;;;;;7.57;3.60;;;14.60;70.00;;;;;;5049327;28;20131;-69
2021/09/22 04:09:41;;;;;;;10.15;4.25;;;14.50;70.00;;;;;;5045684;28;20109;-74
2021/09/22 04:12:07;;;;;;;10.18;2.70;;;14.60;69.90;;;;;;5045547;28;20051;-76
2021/09/22 04:14:34;;;;;;;9.30;4.88;;;14.50;69.80;;;;;;5044620;28;20025;-71
2021/09/22 04:17:01;;;;;;;8.23;2.90;;;14.50;70.10;;;;;;5042353;28;20146;-70
2021/09/22 04:19:27;;;;;;;6.90;2.63;;;14.40;70.00;;;;;;5044800;28;20493;-74
2021/09/22 04:21:54;;;;;;;5.97;2.88;;;14.50;69.90;;;;;;5043683;28;20014;-70
2021/09/22 04:24:20;;;;;;;9.93;4.15;;;14.50;69.70;;;;;;5047153;28;20092;-72
2021/09/22 04:26:47;;;;;;;28.13;17.50;;;14.50;69.70;;;;;;5038332;28;20048;-67
2021/09/22 04:29:13;;;;;;;11.43;7.35;;;14.50;69.60;;;;;;5048174;28;20039;-69
2021/09/22 04:31:42;;;;;;;12.23;3.22;;;14.60;69.40;;;;;;5045379;28;20498;-70
2021/09/22 04:34:08;;;;;;;6.55;2.30;;;14.60;69.30;;;;;;5040696;28;20030;-70
2021/09/22 04:36:35;;;;;;;5.63;2.40;;;14.60;69.10;;;;;;5052003;28;20017;-71
2021/09/22 04:39:05;;;;;;;9.75;2.13;;;14.60;69.30;;;;;;5045598;28;20016;-71
2021/09/22 04:41:31;;;;;;;7.95;2.28;;;14.60;69.40;;;;;;5047794;28;20019;-68
2021/09/22 04:43:58;;;;;;;8.98;3.08;;;14.60;69.50;;;;;;5041846;28;20053;-73
2021/09/22 04:46:24;;;;;;;6.80;2.67;;;14.50;69.70;;;;;;5042187;28;20075;-74
2021/09/22 04:48:51;;;;;;;8.38;3.13;;;14.60;69.80;;;;;;5046370;28;20059;-69
2021/09/22 04:51:19;;;;;;;15.07;3.00;;;14.60;70.10;;;;;;5043667;28;20013;-69
2021/09/22 04:53:47;;;;;;;11.57;2.40;;;14.60;70.40;;;;;;5042613;28;20444;-70
2021/09/22 04:56:16;;;;;;;20.33;4.82;;;14.60;70.50;;;;;;5043591;28;20031;-69
2021/09/22 04:58:44;;;;;;;9.35;3.47;;;14.60;70.60;;;;;;5041479;28;20041;-70
2021/09/22 05:01:11;;;;;;;11.65;3.80;;;14.60;70.70;;;;;;5041252;28;20025;-70
2021/09/22 05:03:38;;;;;;;13.85;4.85;;;14.60;71.10;;;;;;5040921;28;20030;-69
2021/09/22 05:06:04;;;;;;;14.70;4.35;;;14.60;71.30;;;;;;5037365;28;20100;-70
2021/09/22 05:08:31;;;;;;;12.18;3.80;;;14.60;71.40;;;;;;5032907;28;20013;-69
2021/09/22 05:10:58;;;;;;;11.18;4.30;;;14.70;71.70;;;;;;5034397;28;20049;-69
2021/09/22 05:13:24;;;;;;;14.40;4.38;;;14.60;71.70;;;;;;5033471;28;20033;-68
2021/09/22 05:15:51;;;;;;;16.80;4.85;;;14.70;71.80;;;;;;5040952;28;20014;-68
2021/09/22 05:18:18;;;;;;;14.20;3.20;;;14.70;71.70;;;;;;5037054;28;20013;-69
2021/09/22 05:20:44;;;;;;;13.18;4.13;;;14.70;71.80;;;;;;5035668;28;20480;-70
2021/09/22 05:23:11;;;;;;;8.40;3.75;;;14.70;71.90;;;;;;5036421;28;20021;-68
2021/09/22 05:25:38;;;;;;;16.17;5.38;;;14.70;71.80;;;;;;5033127;28;20018;-68
2021/09/22 05:28:04;;;;;;;12.38;4.30;;;14.70;71.60;;;;;;5038739;28;20036;-68
2021/09/22 05:30:31;;;;;;;9.80;3.83;;;14.70;71.50;;;;;;5036867;28;20018;-71
2021/09/22 05:32:58;;;;;;;10.77;4.00;;;14.70;71.20;;;;;;5035118;28;20079;-70
2021/09/22 05:35:26;;;;;;;9.02;4.00;;;14.80;70.90;;;;;;5030485;28;20033;-69
2021/09/22 05:37:53;;;;;;;12.65;4.53;;;14.80;71.30;;;;;;5040293;28;20028;-68
2021/09/22 05:40:20;;;;;;;14.68;4.15;;;14.80;70.60;;;;;;5033915;28;20017;-69
2021/09/22 05:42:46;;;;;;;10.95;5.43;;;14.80;70.50;;;;;;5037247;28;20025;-68
2021/09/22 05:45:14;;;;;;;12.40;4.72;;;14.80;70.50;;;;;;5044948;28;20021;-69
2021/09/22 05:47:41;;;;;;;17.05;5.07;;;14.80;70.40;;;;;;5040663;28;20013;-68
2021/09/22 05:50:08;;;;;;;16.05;4.93;;;14.90;70.50;;;;;;5045716;28;20059;-68
2021/09/22 05:52:35;;;;;;;18.38;6.25;;;14.90;70.30;;;;;;5043169;28;20075;-68
2021/09/22 05:55:01;;;;;;;11.10;4.70;;;14.90;70.20;;;;;;5044420;28;20026;-69
2021/09/22 05:57:28;;;;;;;16.02;5.88;;;14.90;70.20;;;;;;5040277;28;20063;-68
2021/09/22 05:59:54;;;;;;;13.93;5.95;;;15.00;70.30;;;;;;5044811;28;20054;-68
2021/09/22 06:02:21;;;;;;;12.73;5.82;;;15.00;70.20;;;;;;5047018;28;20468;-69
2021/09/22 06:04:47;;;;;;;14.77;4.95;;;15.00;70.20;;;;;;5045261;28;20067;-69
2021/09/22 06:07:14;;;;;;;13.68;6.03;;;15.00;70.00;;;;;;5052074;28;20021;-68
2021/09/22 06:09:40;;;;;;;17.58;5.07;;;15.00;69.70;;;;;;5050672;28;20032;-68
2021/09/22 06:12:07;;;;;;;8.70;5.03;;;15.10;69.80;;;;;;5045660;28;20549;-69
2021/09/22 06:14:33;;;;;;;14.77;4.72;;;15.10;69.60;;;;;;5051331;28;20519;-69
2021/09/22 06:17:00;;;;;;;13.27;4.65;;;15.10;69.60;;;;;;5048530;28;20028;-68
2021/09/22 06:19:27;;;;;;;9.57;4.40;;;15.20;69.30;;;;;;5047022;28;20067;-69
2021/09/22 06:21:53;;;;;;;7.65;4.07;;;15.20;69.30;;;;;;5047059;28;20052;-69
2021/09/22 06:24:20;;;;;;;10.57;4.13;;;15.20;69.00;;;;;;5050305;28;20017;-69
2021/09/22 06:26:47;;;;;;;17.35;5.47;;;15.30;68.90;;;;;;5047260;28;20048;-74
2021/09/22 06:29:14;;;;;;;13.07;4.40;;;15.30;68.80;;;;;;5043108;28;20741;-73
2021/09/22 06:31:41;;;;;;;11.45;4.25;;;15.40;68.70;;;;;;5049599;28;20104;-72
2021/09/22 06:34:08;;;;;;;9.35;4.25;;;15.50;68.60;;;;;;5046734;28;20037;-73
2021/09/22 06:36:35;;;;;;;14.38;3.60;;;15.50;68.10;;;;;;5048879;28;20036;-72
2021/09/22 06:39:03;;;;;;;12.77;3.70;;;15.60;68.10;;;;;;5051743;28;20025;-71
2021/09/22 06:41:30;;;;;;;14.18;9.20;;;15.70;68.00;;;;;;5045490;28;20111;-71
2021/09/22 06:43:57;;;;;;;12.77;9.02;;;15.70;67.60;;;;;;5043642;28;20079;-72
2021/09/22 06:46:24;;;;;;;9.90;4.43;;;15.80;67.10;;;;;;5053784;28;20096;-72
2021/09/22 06:48:50;;;;;;;12.73;4.18;;;15.80;67.10;;;;;;5048094;28;20546;-73
2021/09/22 06:51:20;;;;;;;11.73;4.50;;;15.80;66.90;;;;;;5055062;28;20559;-73
2021/09/22 06:53:46;;;;;;;9.52;4.00;;;15.90;66.80;;;;;;5047762;28;20048;-74
2021/09/22 06:56:13;;;;;;;8.65;3.17;;;16.00;65.80;;;;;;5046732;28;20017;-74
2021/09/22 06:58:40;;;;;;;6.57;3.80;;;16.10;65.00;;;;;;5049429;28;20583;-73
2021/09/22 07:01:08;;;;;;;10.65;3.33;;;16.20;64.40;;;;;;5053445;28;20103;-72
2021/09/22 07:03:34;;;;;;;5.15;3.10;;;16.30;63.80;;;;;;5049741;28;20024;-73
2021/09/22 07:06:01;;;;;;;9.20;3.65;;;16.40;62.90;;;;;;5044032;28;20491;-71
2021/09/22 07:08:27;;;;;;;8.93;4.00;;;16.50;60.50;;;;;;5045828;28;20029;-71
2021/09/22 07:10:54;;;;;;;8.55;3.15;;;16.60;58.60;;;;;;5045777;28;20029;-71
2021/09/22 07:13:22;;;;;;;14.18;3.70;;;16.70;58.50;;;;;;5057141;28;20379;-70
2021/09/22 07:15:49;;;;;;;10.88;4.05;;;16.80;59.00;;;;;;5044902;28;20108;-69
2021/09/22 07:18:18;;;;;;;13.32;5.38;;;16.90;59.20;;;;;;5042231;28;20022;-70
2021/09/22 07:20:45;;;;;;;14.30;9.52;;;17.10;57.60;;;;;;5046319;28;20517;-72
2021/09/22 07:23:12;;;;;;;12.55;5.05;;;17.10;58.30;;;;;;5040482;28;20069;-72
2021/09/22 07:25:38;;;;;;;13.90;5.05;;;17.20;58.90;;;;;;5053410;28;20028;-70
2021/09/22 07:28:05;;;;;;;14.85;5.50;;;17.30;57.70;;;;;;5050230;28;20045;-71
2021/09/22 07:30:32;;;;;;;9.57;4.47;;;17.40;56.60;;;;;;5049005;28;20388;-70
2021/09/22 07:33:00;;;;;;;12.68;5.70;;;17.60;56.10;;;;;;5047203;28;20035;-71
2021/09/22 07:35:27;;;;;;;14.25;5.13;;;17.70;56.00;;;;;;5044530;28;20037;-70
2021/09/22 07:37:54;;;;;;;15.70;5.07;;;17.80;56.10;;;;;;5039838;28;20488;-71
2021/09/22 07:40:21;;;;;;;8.40;5.32;;;17.90;53.70;;;;;;5049326;28;20028;-74
2021/09/22 07:42:47;;;;;;;7.30;4.50;;;18.00;54.60;;;;;;5049102;28;20028;-80
2021/09/22 07:45:14;;;;;;;8.65;3.20;;;18.00;53.80;;;;;;5050444;28;20017;-81
2021/09/22 07:47:41;;;;;;;7.15;2.72;;;18.10;53.20;;;;;;5050700;28;20021;-80
2021/09/22 07:50:09;;;;;;;11.68;3.17;;;18.20;52.70;;;;;;5048505;28;20013;-75
2021/09/22 07:52:39;;;;;;;11.27;3.42;;;18.30;52.20;;;;;;5046463;28;20106;-74
2021/09/22 07:55:08;;;;;;;6.85;3.28;;;18.40;51.70;;;;;;5050431;28;20033;-72
2021/09/22 07:57:35;;;;;;;7.93;3.97;;;18.50;51.40;;;;;;5046011;28;20446;-73
2021/09/22 08:00:02;;;;;;;8.77;4.10;;;18.50;51.50;;;;;;5043623;28;20045;-75
2021/09/22 08:02:29;;;;;;;10.27;3.25;;;18.70;51.90;;;;;;5038965;28;20456;-79
2021/09/22 08:04:55;;;;;;;8.40;3.38;;;18.80;51.60;;;;;;5042648;28;20100;-82
2021/09/22 08:07:22;;;;;;;14.93;4.05;;;18.90;51.60;;;;;;5043212;28;20021;-82
2021/09/22 08:09:49;;;;;;;5.22;3.47;;;19.00;51.90;;;;;;5041871;28;20035;-87
2021/09/22 08:12:16;;;;;;;8.40;4.07;;;19.10;51.80;;;;;;5041117;28;20460;-87
2021/09/22 08:14:42;;;;;;;6.13;3.55;;;19.20;51.90;;;;;;5052225;28;20127;-82
2021/09/22 08:17:12;;;;;;;11.23;3.80;;;19.30;51.50;;;;;;5044073;28;20021;-80
2021/09/22 08:19:39;;;;;;;8.95;4.03;;;19.40;51.30;;;;;;5040953;28;20472;-80
2021/09/22 08:22:06;;;;;;;13.82;5.32;;;19.60;50.90;;;;;;5040597;28;20075;-77
2021/09/22 08:24:33;;;;;;;21.63;6.50;;;19.60;50.70;;;;;;5041778;28;20086;-82
2021/09/22 08:27:00;;;;;;;12.18;6.45;;;19.80;50.90;;;;;;5040956;28;20465;-74
2021/09/22 08:29:27;;;;;;;11.63;6.40;;;19.90;50.70;;;;;;5034905;28;20561;-80
2021/09/22 08:31:54;;;;;;;10.27;6.57;;;20.00;50.50;;;;;;5039465;28;20075;-80
2021/09/22 08:34:20;;;;;;;17.98;6.95;;;20.10;50.60;;;;;;5043523;28;20079;-80
2021/09/22 08:36:47;;;;;;;13.80;7.68;;;20.20;50.60;;;;;;5046246;28;20051;-77
2021/09/22 08:39:15;;;;;;;13.60;6.65;;;20.30;49.90;;;;;;5037708;28;20526;-76
2021/09/22 08:41:42;;;;;;;17.55;7.30;;;20.40;49.40;;;;;;5041404;28;20090;-73
2021/09/22 08:44:13;;;;;;;18.05;8.43;;;20.50;49.60;;;;;;5048421;28;20017;-78
2021/09/22 08:46:41;;;;;;;19.08;8.20;;;20.60;49.20;;;;;;5045723;28;20108;-74
2021/09/22 08:49:09;;;;;;;15.75;7.53;;;20.80;48.80;;;;;;5052902;28;20040;-69
2021/09/22 08:51:38;;;;;;;14.90;7.53;;;20.90;48.70;;;;;;5050890;28;20025;-77
2021/09/22 08:54:05;;;;;;;18.38;7.43;;;21.00;48.70;;;;;;5043425;28;20036;-76
2021/09/22 08:56:32;;;;;;;18.77;8.38;;;21.10;48.80;;;;;;5049736;28;20036;-76
2021/09/22 08:58:58;;;;;;;17.25;8.02;;;21.20;48.50;;;;;;5051834;28;20124;-70
2021/09/22 09:01:25;;;;;;;18.10;7.70;;;21.40;48.20;;;;;;5041280;28;20483;-70
2021/09/22 09:03:53;;;;;;;13.90;6.30;;;21.50;47.80;;;;;;5040530;28;20017;-70
2021/09/22 09:06:26;;;;;;;9.88;5.40;;;21.70;47.40;;;;;;5044968;28;20530;-70
2021/09/22 09:08:56;;;;;;;13.82;6.68;;;21.90;46.50;;;;;;5044834;28;20021;-70
2021/09/22 09:11:28;;;;;;;19.38;6.82;;;22.00;46.10;;;;;;5044254;28;20143;-70
2021/09/22 09:13:56;;;;;;;17.08;5.75;;;22.20;46.10;;;;;;5047336;28;20025;-70
2021/09/22 09:16:30;;;;;;;18.95;6.20;;;22.40;45.00;;;;;;5045703;28;20017;-70
2021/09/22 09:18:57;;;;;;;13.38;5.88;;;22.50;44.40;;;;;;5043563;28;20128;-70
2021/09/22 09:21:25;;;;;;;14.25;5.57;;;22.70;43.90;;;;;;5044356;28;20021;-70
2021/09/22 09:23:56;;;;;;;18.35;4.47;;;22.90;43.90;;;;;;5043607;28;20455;-71
2021/09/22 09:26:26;;;;;;;15.43;4.38;;;23.00;43.70;;;;;;5045647;28;20092;-73
2021/09/22 09:28:56;;;;;;;7.45;4.00;;;23.20;44.10;;;;;;5040237;28;20421;-80
2021/09/22 09:31:29;;;;;;;13.35;4.47;;;23.30;43.80;;;;;;5037912;28;20874;-71
2021/09/22 09:33:57;;;;;;;14.52;4.32;;;23.40;43.50;;;;;;5036781;28;20095;-76
2021/09/22 09:36:26;;;;;;;8.15;4.40;;;23.50;42.40;;;;;;5045018;28;20041;-78
2021/09/22 09:38:55;;;;;;;12.07;5.20;;;23.60;42.10;;;;;;5049320;28;20499;-71
2021/09/22 09:41:51;;;;;;;12.93;4.57;;;23.70;41.70;;;;;;5044544;28;20111;-71
2021/09/22 09:44:27;;;;;;;12.43;4.68;;;23.90;41.70;;;;;;5046700;28;20025;-72
2021/09/22 09:47:07;;;;;;;18.15;5.22;;;24.00;41.50;;;;;;5044615;28;20491;-72
2021/09/22 09:49:37;;;;;;;10.00;3.85;;;24.10;41.50;;;;;;5057333;28;20027;-77
2021/09/22 09:52:04;;;;;;;9.82;3.40;;;24.20;40.30;;;;;;5047705;28;20083;-77
2021/09/22 09:54:33;;;;;;;13.25;4.38;;;24.30;39.70;;;;;;5048655;28;20033;-80
2021/09/22 09:57:14;;;;;;;10.23;4.38;;;24.50;39.10;;;;;;5047662;28;20013;-72
2021/09/22 09:59:46;;;;;;;11.45;3.78;;;24.80;39.30;;;;;;5047390;28;20055;-81
2021/09/22 10:02:32;;;;;;;7.72;3.80;;;25.00;38.70;;;;;;5046386;28;20017;-82
2021/09/22 10:05:00;;;;;;;10.15;3.97;;;25.30;36.60;;;;;;5044702;28;20083;-80
2021/09/22 10:07:29;;;;;;;7.15;3.17;;;25.50;33.20;;;;;;5050578;28;20029;-74
2021/09/22 10:09:56;;;;;;;10.43;2.50;;;25.70;34.30;;;;;;5052675;28;20025;-69
2021/09/22 10:12:23;;;;;;;1.65;0.65;;;25.90;33.20;;;;;;5052751;28;20028;-71
2021/09/22 10:14:50;;;;;;;3.47;0.80;;;26.20;30.60;;;;;;5038912;28;20029;-79
2021/09/22 10:17:17;;;;;;;14.50;1.70;;;26.60;29.20;;;;;;5039134;28;20025;-78
2021/09/22 10:19:48;;;;;;;8.90;1.05;;;26.70;28.90;;;;;;5039199;28;20025;-80
2021/09/22 10:22:14;;;;;;;7.45;1.65;;;26.90;29.30;;;;;;5048254;28;20079;-73
2021/09/22 10:24:49;;;;;;;8.18;2.00;;;26.90;29.80;;;;;;5050100;28;20060;-79
2021/09/22 10:27:17;;;;;;;5.63;1.17;;;27.10;30.80;;;;;;5042571;28;20021;-76
2021/09/22 10:29:59;;;;;;;28.88;25.45;;;27.30;28.90;;;;;;5049303;28;20021;-71
2021/09/22 10:32:44;;;;;;;28.80;24.40;;;27.40;27.40;;;;;;5049807;28;20100;-76
2021/09/22 10:35:37;;;;;;;11.10;5.05;;;27.50;30.50;;;;;;5041506;28;20033;-71
2021/09/22 10:38:26;;;;;;;5.40;3.13;;;27.40;31.40;;;;;;5048163;28;20455;-78
2021/09/22 10:40:58;;;;;;;4.68;2.08;;;27.40;31.60;;;;;;5039483;28;20033;-72
2021/09/22 10:43:44;;;;;;;2.30;0.70;;;27.50;29.00;;;;;;5045421;28;20021;-77
2021/09/22 10:46:15;;;;;;;3.60;0.70;;;27.70;24.50;;;;;;5043800;28;20480;-80
2021/09/22 10:48:57;;;;;;;1.02;0.50;;;27.90;23.90;;;;;;5045172;28;20498;-78
2021/09/22 10:51:31;;;;;;;2.50;0.77;;;28.10;23.40;;;;;;5056735;28;20100;-70
2021/09/22 10:54:24;;;;;;;1.48;0.70;;;28.30;23.20;;;;;;5043124;28;20491;-75
2021/09/22 10:56:57;;;;;;;1.25;0.60;;;28.40;24.50;;;;;;5049127;28;20045;-78
2021/09/22 10:59:38;;;;;;;2.00;0.57;;;28.50;24.80;;;;;;5042908;28;20508;-71
2021/09/22 11:02:10;;;;;;;2.28;0.65;;;28.60;23.80;;;;;;5048646;28;20396;-70
2021/09/22 11:04:55;;;;;;;3.90;1.00;;;28.70;24.30;;;;;;5049937;28;20048;-70
2021/09/22 11:07:22;;;;;;;1.73;0.80;;;28.80;24.10;;;;;;5042510;28;20021;-70
2021/09/22 11:09:50;;;;;;;4.80;0.80;;;29.00;24.10;;;;;;5045611;28;20075;-70
2021/09/22 11:12:17;;;;;;;2.28;0.63;;;29.00;24.00;;;;;;5046068;28;20033;-70
2021/09/22 11:14:46;;;;;;;4.68;1.00;;;29.10;23.00;;;;;;5045539;28;20392;-70
2021/09/22 11:17:23;;;;;;;6.90;1.30;;;29.20;23.50;;;;;;5045976;28;20392;-70
2021/09/22 11:20:01;;;;;;;2.00;0.80;;;29.40;24.30;;;;;;5046522;28;20070;-70
2021/09/22 11:22:29;;;;;;;2.20;0.98;;;29.60;24.20;;;;;;5044299;28;20022;-70
2021/09/22 11:25:05;;;;;;;3.08;0.60;;;29.60;23.70;;;;;;5046278;28;20005;-70
2021/09/22 11:27:33;;;;;;;1.17;0.57;;;29.60;24.10;;;;;;5050731;28;20528;-70
2021/09/22 11:30:02;;;;;;;3.17;1.02;;;29.50;24.10;;;;;;5043559;28;20021;-70
2021/09/22 11:32:34;;;;;;;6.70;1.13;;;29.50;24.00;;;;;;5037925;28;20021;-71
2021/09/22 11:35:08;;;;;;;1.88;0.93;;;29.50;24.00;;;;;;5049476;28;20027;-70
2021/09/22 11:37:44;;;;;;;4.70;0.85;;;29.60;23.70;;;;;;5045077;28;20021;-70
2021/09/22 11:40:20;;;;;;;2.03;0.90;;;29.70;23.80;;;;;;5048333;28;20029;-70
2021/09/22 11:43:02;;;;;;;3.80;1.13;;;29.80;23.80;;;;;;5044974;28;20048;-70
2021/09/22 11:45:34;;;;;;;4.50;1.20;;;29.90;23.50;;;;;;5046135;28;20053;-70
2021/09/22 11:48:01;;;;;;;2.33;1.08;;;29.90;24.00;;;;;;5045172;28;20021;-70
2021/09/22 11:50:42;;;;;;;2.17;1.00;;;30.10;23.90;;;;;;5050018;28;20055;-71
2021/09/22 11:53:11;;;;;;;7.80;1.85;;;30.20;24.20;;;;;;5050579;28;20021;-70
2021/09/22 11:55:39;;;;;;;2.50;0.68;;;30.30;24.30;;;;;;5043561;28;20029;-70
2021/09/22 11:58:11;;;;;;;4.05;0.80;;;30.40;24.80;;;;;;5043581;28;20025;-70
2021/09/22 12:00:39;;;;;;;3.45;1.02;;;30.60;24.90;;;;;;5042833;28;20040;-70
2021/09/22 12:03:11;;;;;;;2.45;0.98;;;30.60;24.50;;;;;;5046288;28;20024;-70
2021/09/22 12:05:39;;;;;;;2.88;1.13;;;30.70;24.40;;;;;;5049532;28;20044;-70
2021/09/22 12:08:06;;;;;;;1.17;0.85;;;30.80;22.50;;;;;;5046460;28;20491;-71
2021/09/22 12:10:33;;;;;;;1.15;0.50;;;30.90;22.20;;;;;;5043601;28;20021;-70
2021/09/22 12:13:03;;;;;;;2.75;0.70;;;31.00;21.30;;;;;;5047955;28;20021;-71
2021/09/22 12:15:32;;;;;;;0.88;0.68;;;31.10;20.50;;;;;;5049166;28;20033;-71
2021/09/22 12:17:58;;;;;;;3.33;0.80;;;31.20;21.10;;;;;;5041752;28;20097;-70
2021/09/22 12:20:27;;;;;;;5.60;1.08;;;31.20;20.70;;;;;;5046315;28;20757;-70
2021/09/22 12:23:09;;;;;;;4.63;0.85;;;31.20;21.30;;;;;;5047240;28;20027;-70
2021/09/22 12:25:37;;;;;;;1.85;0.80;;;31.20;21.60;;;;;;5042587;28;20057;-70
2021/09/22 12:28:15;;;;;;;5.78;1.90;;;31.10;21.30;;;;;;5043439;28;20027;-70
2021/09/22 12:30:42;;;;;;;13.48;5.30;;;31.00;22.00;;;;;;5047301;28;20021;-70
2021/09/22 12:33:10;;;;;;;13.00;5.40;;;31.00;25.80;;;;;;5043537;28;20021;-70
2021/09/22 12:35:42;;;;;;;9.15;4.57;;;31.00;26.20;;;;;;5048309;28;20063;-70
2021/09/22 12:38:14;;;;;;;11.40;4.13;;;31.00;27.20;;;;;;5046655;28;20491;-70
2021/09/22 12:40:48;;;;;;;11.07;4.28;;;30.90;28.90;;;;;;5042100;28;20018;-70
2021/09/22 12:43:22;;;;;;;7.57;4.68;;;30.80;29.30;;;;;;5049166;28;20019;-71
2021/09/22 12:45:49;;;;;;;14.85;4.68;;;30.70;29.60;;;;;;5046427;28;20109;-71
2021/09/22 12:48:26;;;;;;;9.77;4.57;;;30.40;29.70;;;;;;5045998;28;20103;-70